Terminal Aerodrome Forecast
Issued by NWS

Home | Current Version | Previous Version | Text Only | Print | Product List | Glossary On
Versions: 1 2 3 4 5 6 7 8 9 10 11 12 13 14 15 16 17 18 19 20 21 22 23 24 25 26 27 28 29 30 31
000
FTUS44 KOUN 201740
TAFWWR
TAF
KWWR 201740Z 2018/2118 21012KT P6SM SCT015
      TEMPO 2018/2020 BKN015
     FM210000 17010KT P6SM SCT025
     FM210600 17010KT 3SM BR OVC015
     FM210900 18012KT 1SM BR OVC003
      TEMPO 2110/2114 1/2SM FG OVC002=

USA.gov is the U.S. government's official web portal to all federal, state and local government web resources and services.